createdAt,value
2017-12-19T09:37:41.165Z,19.90
2017-12-19T09:43:00.480Z,14.33
2017-12-19T10:05:22.591Z,13.90
2017-12-19T10:10:24.758Z,13.93
2017-12-19T10:15:27.495Z,13.90
2017-12-19T10:20:30.577Z,15.47
2017-12-19T10:25:43.957Z,15.23
2017-12-19T10:30:28.759Z,15.37
2017-12-19T10:35:31.366Z,14.50
2017-12-19T10:40:21.033Z,15.57
2017-12-19T10:56:04.304Z,17.03
2017-12-19T11:11:30.301Z,15.50
2017-12-19T11:16:35.202Z,17.07
2017-12-19T11:21:26.664Z,15.80
2017-12-19T11:26:15.022Z,16.90
2017-12-19T11:31:00.448Z,15.53
2017-12-19T11:35:45.818Z,17.57
2017-12-19T11:40:34.752Z,17.77
2017-12-19T11:45:19.915Z,16.60
2017-12-19T11:50:05.090Z,18.47
2017-12-19T11:54:50.915Z,17.07
2017-12-19T11:59:36.284Z,17.83
2017-12-19T12:04:23.486Z,18.97
2017-12-19T12:09:09.483Z,19.27
2017-12-19T12:13:54.546Z,17.70
2017-12-19T12:18:40.630Z,17.50
2017-12-19T12:23:27.648Z,19.73
2017-12-19T12:28:24.344Z,18.73
2017-12-19T12:33:14.712Z,19.00
2017-12-19T12:43:08.292Z,19.60
2017-12-19T12:47:52.761Z,19.63
2017-12-19T12:52:41.509Z,17.43
2017-12-19T12:57:36.512Z,16.10
2017-12-19T13:02:21.652Z,17.50
2017-12-19T13:07:07.225Z,16.87
2017-12-19T13:11:51.559Z,18.27
2017-12-19T13:16:45.367Z,17.93
2017-12-19T13:21:34.223Z,17.70
2017-12-19T13:26:18.669Z,18.23
2017-12-19T13:31:05.720Z,18.30
2017-12-19T13:35:50.831Z,17.03
2017-12-19T13:40:36.193Z,18.37
2017-12-19T13:45:21.450Z,18.03
2017-12-19T13:50:07.113Z,17.17
2017-12-19T13:54:51.649Z,20.77
2017-12-19T13:59:40.343Z,19.83
2017-12-19T14:04:25.822Z,19.03
2017-12-19T14:09:10.160Z,22.43
2017-12-19T14:13:54.468Z,19.57
2017-12-19T14:18:38.779Z,19.50
2017-12-19T14:23:23.115Z,18.87
2017-12-19T14:28:07.378Z,19.83
2017-12-19T14:32:51.655Z,19.93
2017-12-19T14:37:35.988Z,20.17
2017-12-19T14:42:20.396Z,20.00
2017-12-19T14:47:06.291Z,19.47
2017-12-19T14:51:51.697Z,21.83
2017-12-19T14:56:36.012Z,22.00
2017-12-19T15:01:20.377Z,21.07
2017-12-19T15:06:06.337Z,22.10
2017-12-19T15:10:52.321Z,20.40
2017-12-19T15:15:37.919Z,22.93
2017-12-19T15:20:26.265Z,22.83
2017-12-19T15:25:10.646Z,23.10
2017-12-19T15:29:56.512Z,20.93
2017-12-19T15:34:40.991Z,21.63
2017-12-19T15:39:25.518Z,21.17
2017-12-19T15:44:10.073Z,20.13
2017-12-19T15:48:54.443Z,19.30
2017-12-19T15:53:38.868Z,19.57
2017-12-19T15:58:23.214Z,21.60
2017-12-19T16:03:07.512Z,18.83
2017-12-19T16:07:51.824Z,17.67
2017-12-19T16:12:36.957Z,19.33
2017-12-19T16:17:21.562Z,16.73
2017-12-19T16:22:07.241Z,17.47
2017-12-19T16:26:51.616Z,16.87
2017-12-19T16:31:36.746Z,17.43
2017-12-19T16:36:21.459Z,16.53
2017-12-19T16:41:05.832Z,16.87
2017-12-19T16:45:50.526Z,16.20
2017-12-19T16:50:34.909Z,14.97
2017-12-19T16:55:19.293Z,15.47
2017-12-19T17:00:06.003Z,15.60
2017-12-19T17:04:50.510Z,13.77
2017-12-19T17:09:34.894Z,15.70
2017-12-19T17:14:20.096Z,15.47
2017-12-19T17:19:04.572Z,13.37
2017-12-19T17:23:48.963Z,11.83
2017-12-19T17:28:33.369Z,11.57
2017-12-19T17:33:17.797Z,13.13
2017-12-19T17:38:02.132Z,11.03
2017-12-19T17:42:46.551Z,11.17
2017-12-19T17:47:30.910Z,11.47
2017-12-19T17:52:15.319Z,11.57
2017-12-19T17:56:59.613Z,10.70
2017-12-19T18:01:43.932Z,9.50
2017-12-19T18:06:28.387Z,9.90
2017-12-19T18:11:12.899Z,8.73
2017-12-19T18:15:57.305Z,8.67
2017-12-19T18:20:41.689Z,8.00
2017-12-19T18:25:26.084Z,8.23
2017-12-19T18:30:10.444Z,8.90
2017-12-19T18:34:54.827Z,8.30
2017-12-19T18:39:39.219Z,7.53
2017-12-19T18:44:23.562Z,7.50
2017-12-19T18:49:08.008Z,8.47
2017-12-19T18:53:52.411Z,7.97
2017-12-19T18:58:37.574Z,7.90
2017-12-19T19:03:21.964Z,7.27
2017-12-19T19:08:06.402Z,9.50
2017-12-19T19:12:50.764Z,10.60
2017-12-19T19:17:35.548Z,9.20
2017-12-19T19:22:20.064Z,9.63
2017-12-19T19:27:05.985Z,10.53
2017-12-19T19:31:50.563Z,9.87
2017-12-19T19:36:34.914Z,9.33
2017-12-19T19:41:19.340Z,8.47
2017-12-19T19:46:03.755Z,9.37
2017-12-19T19:50:48.221Z,9.30
2017-12-19T19:55:32.689Z,9.90
2017-12-19T20:00:17.101Z,10.33
2017-12-19T20:05:01.601Z,8.33
2017-12-19T20:09:48.041Z,11.00
2017-12-19T20:14:34.111Z,10.57
2017-12-19T20:19:19.444Z,10.67
2017-12-19T20:24:04.863Z,10.83
2017-12-19T20:28:49.661Z,10.60
2017-12-19T20:33:34.246Z,11.83
2017-12-19T20:38:18.892Z,9.63
2017-12-19T20:43:03.544Z,9.53
2017-12-19T20:47:47.997Z,16.70
2017-12-19T20:52:32.491Z,10.40
2017-12-19T20:57:16.916Z,9.50
2017-12-19T21:02:01.375Z,9.27
2017-12-19T21:06:46.553Z,10.13
2017-12-19T21:11:31.005Z,11.53
2017-12-19T21:16:15.442Z,11.07
2017-12-19T21:21:00.669Z,11.77
2017-12-19T21:25:45.527Z,12.47
2017-12-19T21:30:29.998Z,13.13
2017-12-19T21:35:14.501Z,13.63
2017-12-19T21:39:59.064Z,12.70
2017-12-19T21:44:44.236Z,13.30
2017-12-19T21:49:28.767Z,12.30
2017-12-19T21:54:13.274Z,16.03
2017-12-19T21:58:57.804Z,14.77
2017-12-19T22:03:42.711Z,14.90
2017-12-19T22:08:27.155Z,14.93
2017-12-19T22:13:11.589Z,13.67
2017-12-19T22:17:56.000Z,12.83
2017-12-19T22:22:40.415Z,13.57
2017-12-19T22:27:24.864Z,11.63
2017-12-19T22:32:09.332Z,11.90
2017-12-19T22:36:54.207Z,16.90
2017-12-19T22:41:38.665Z,12.93
2017-12-19T22:46:23.125Z,18.67
2017-12-19T22:51:07.584Z,21.47
2017-12-19T22:55:52.022Z,11.50
2017-12-19T23:00:37.318Z,15.03
2017-12-19T23:05:21.857Z,11.03
2017-12-19T23:10:06.903Z,11.23
2017-12-19T23:14:51.328Z,12.23
2017-12-19T23:19:36.582Z,12.77
2017-12-19T23:24:21.080Z,13.90
2017-12-19T23:29:05.489Z,14.53
2017-12-19T23:33:49.907Z,11.23
2017-12-19T23:38:34.376Z,12.13
2017-12-19T23:43:18.780Z,14.27
2017-12-19T23:48:03.980Z,13.37
2017-12-19T23:52:48.385Z,11.70
2017-12-19T23:57:32.797Z,12.67
